EGPI

Details ICAO EGPI (ILY)
Name Islay
Region United Kingdom
Timezone Europe/London (UTC+0.0)
Plans Departing 7
Arriving 16
Stats Elevation 54 ft / 16 m (AMSL)
Location 55.683419° -6.256875°
Runways 2
Magnetic Variation 3.461° W
Sunrise 2017-12-14 08:48:45 UTC / 2017-12-14 08:48:45 Local
Sunset 2017-12-14 15:53:29 UTC / 2017-12-14 15:53:29 Local
Advertisement - Login to hide

Runways

ID Width Length Bearing (true) Bearing (mag) Surface Threshold Offset Overrun Length
08 59 ft / 18 m 2,077 ft / 633 m 70.45° 73.91° Asphalt 0 ft / 0 m 0 ft / 0 m
13 151 ft / 46 m 5,068 ft / 1,545 m 120.93° 124.39° Asphalt 463 ft / 141 m 0 ft / 0 m
26 59 ft / 18 m 2,077 ft / 633 m 250.46° 253.92° Asphalt 190 ft / 58 m 0 ft / 0 m
31 151 ft / 46 m 5,068 ft / 1,545 m 300.95° 304.41° Asphalt 463 ft / 141 m 0 ft / 0 m

Map

Weather


0- 5 10 15 20 25 30 35+ Temperature / ° C

Clouds and Precipitation
Forecast for 2017-12-14 18:00 UTC. Updated 37 minutes ago

Ground ~20,000 ft ~40,000 ft Winds

METAR

EGPI 141520Z 33020G31KT 300V360 9999 TSRAGS SCT023CB 05/04 Q0983

TAF

Not found

Frequencies

Tower 121.60 MHz Islay Fire Chief
Tower 123.15 MHz Islay Information
Warning: Do not use this data for real-world aviation or navigation. No guarantee of current accuracy is given.